createdAt,value
2022-10-14T00:00:08.723Z,9.21
2022-10-14T00:03:03.290Z,9.80
2022-10-14T00:05:35.062Z,10.23
2022-10-14T00:08:06.920Z,10.71
2022-10-14T00:10:41.060Z,11.24
2022-10-14T00:13:12.755Z,11.78
2022-10-14T00:15:44.981Z,11.90
2022-10-14T00:18:16.900Z,10.92
2022-10-14T00:20:57.946Z,9.80
2022-10-14T00:23:30.093Z,8.79
2022-10-14T00:26:02.388Z,8.24
2022-10-14T00:28:35.461Z,9.05
2022-10-14T00:31:07.308Z,9.89
2022-10-14T00:33:39.030Z,10.40
2022-10-14T00:36:13.854Z,10.78
2022-10-14T00:38:47.659Z,11.17
2022-10-14T00:41:21.933Z,11.16
2022-10-14T00:44:02.235Z,10.01
2022-10-14T00:46:36.061Z,8.70
2022-10-14T00:49:15.563Z,7.66
2022-10-14T00:51:53.481Z,7.18
2022-10-14T00:54:30.419Z,7.97
2022-10-14T00:57:03.387Z,8.82
2022-10-14T00:59:37.275Z,9.44
2022-10-14T01:02:09.392Z,9.88
2022-10-14T01:04:44.011Z,10.25
2022-10-14T01:07:25.342Z,10.61
2022-10-14T01:10:04.289Z,10.59
2022-10-14T01:12:45.294Z,9.48
2022-10-14T01:15:26.419Z,8.34
2022-10-14T01:18:09.864Z,7.48
2022-10-14T01:20:54.983Z,7.20
2022-10-14T01:23:55.474Z,8.37
2022-10-14T01:26:49.668Z,9.55
2022-10-14T01:29:34.954Z,10.17
2022-10-14T01:32:14.336Z,10.59
2022-10-14T01:34:53.518Z,10.63
2022-10-14T01:37:30.090Z,9.62
2022-10-14T01:40:06.796Z,8.62
2022-10-14T01:42:42.208Z,7.85
2022-10-14T01:45:20.103Z,7.24
2022-10-14T01:47:54.487Z,6.71
2022-10-14T01:50:29.182Z,6.59
2022-10-14T01:53:06.276Z,7.84
2022-10-14T01:55:43.479Z,8.98
2022-10-14T01:58:18.116Z,9.65
2022-10-14T02:00:50.034Z,10.10
2022-10-14T02:03:21.732Z,10.16
2022-10-14T02:06:00.781Z,9.13
2022-10-14T02:08:46.529Z,7.96
2022-10-14T02:11:21.141Z,7.05
2022-10-14T02:14:09.194Z,6.36
2022-10-14T02:16:49.355Z,6.07
2022-10-14T02:19:30.561Z,7.17
2022-10-14T02:22:06.969Z,8.15
2022-10-14T02:24:41.989Z,8.70
2022-10-14T02:27:17.500Z,9.14
2022-10-14T02:29:50.667Z,9.48
2022-10-14T02:32:25.381Z,9.56
2022-10-14T02:34:59.938Z,8.66
2022-10-14T02:37:34.040Z,7.61
2022-10-14T02:40:12.799Z,6.75
2022-10-14T02:42:44.688Z,6.01
2022-10-14T02:45:17.402Z,5.78
2022-10-14T02:47:50.005Z,6.92
2022-10-14T02:50:22.202Z,7.91
2022-10-14T02:52:56.424Z,8.62
2022-10-14T02:55:28.275Z,9.15
2022-10-14T02:57:59.969Z,9.58
2022-10-14T03:00:31.827Z,9.69
2022-10-14T03:03:03.669Z,8.73
2022-10-14T03:05:35.683Z,7.63
2022-10-14T03:08:07.837Z,6.73
2022-10-14T03:10:39.496Z,6.07
2022-10-14T03:13:12.857Z,5.87
2022-10-14T03:15:48.865Z,7.06
2022-10-14T03:18:21.696Z,8.24
2022-10-14T03:20:53.876Z,8.97
2022-10-14T03:23:28.886Z,9.38
2022-10-14T03:26:00.566Z,9.40
2022-10-14T03:28:38.000Z,8.26
2022-10-14T03:31:23.968Z,6.98
2022-10-14T03:34:14.444Z,6.01
2022-10-14T03:36:46.672Z,5.72
2022-10-14T03:39:18.507Z,6.85
2022-10-14T03:41:53.742Z,7.93
2022-10-14T03:44:30.805Z,8.61
2022-10-14T03:47:23.499Z,9.07
2022-10-14T03:49:55.907Z,9.38
2022-10-14T03:52:32.448Z,9.31
2022-10-14T03:55:10.443Z,8.13
2022-10-14T03:57:42.304Z,6.96
2022-10-14T04:00:17.485Z,6.07
2022-10-14T04:02:51.260Z,5.74
2022-10-14T04:05:37.245Z,6.95
2022-10-14T04:08:14.022Z,8.00
2022-10-14T04:10:54.538Z,8.62
2022-10-14T04:13:26.854Z,9.03
2022-10-14T04:15:58.864Z,9.36
2022-10-14T04:18:39.337Z,9.36
2022-10-14T04:21:14.830Z,8.30
2022-10-14T04:23:47.367Z,7.21
2022-10-14T04:26:20.943Z,6.38
2022-10-14T04:28:52.910Z,6.06
2022-10-14T04:31:35.160Z,7.23
2022-10-14T04:34:07.999Z,8.23
2022-10-14T04:36:42.428Z,8.84
2022-10-14T04:39:27.156Z,9.24
2022-10-14T04:41:59.130Z,9.51
2022-10-14T04:44:31.021Z,9.45
2022-10-14T04:47:05.745Z,8.37
2022-10-14T04:49:37.576Z,7.27
2022-10-14T04:52:14.406Z,6.35
2022-10-14T04:55:07.506Z,5.50
2022-10-14T04:57:43.918Z,5.29
2022-10-14T05:00:18.014Z,6.45
2022-10-14T05:03:04.676Z,7.63
2022-10-14T05:05:38.941Z,8.28
2022-10-14T05:08:10.713Z,8.80
2022-10-14T05:10:45.731Z,9.24
2022-10-14T05:13:21.629Z,9.59
2022-10-14T05:16:00.108Z,9.86
2022-10-14T05:18:32.239Z,9.82
2022-10-14T05:21:07.572Z,8.83
2022-10-14T05:23:57.495Z,7.70
2022-10-14T05:26:30.605Z,7.01
2022-10-14T05:29:03.498Z,6.76
2022-10-14T05:31:35.489Z,7.80
2022-10-14T05:34:15.832Z,9.06
2022-10-14T05:36:48.247Z,9.86
2022-10-14T05:39:20.978Z,10.34
2022-10-14T05:41:53.127Z,10.42
2022-10-14T05:44:28.191Z,9.50
2022-10-14T05:47:00.311Z,8.56
2022-10-14T05:49:32.430Z,7.86
2022-10-14T05:52:06.343Z,7.31
2022-10-14T05:54:38.459Z,7.17
2022-10-14T05:57:11.007Z,8.35
2022-10-14T05:59:43.473Z,9.60
2022-10-14T06:02:15.429Z,10.44
2022-10-14T06:04:47.516Z,11.03
2022-10-14T06:07:19.949Z,11.20
2022-10-14T06:09:51.873Z,10.29
2022-10-14T06:12:25.758Z,9.33
2022-10-14T06:14:57.892Z,8.62
2022-10-14T06:20:18.614Z,8.11
2022-10-14T06:22:50.481Z,9.38
2022-10-14T06:25:22.829Z,10.52
2022-10-14T06:27:55.236Z,11.31
2022-10-14T06:30:27.473Z,11.91
2022-10-14T06:33:00.161Z,12.40
2022-10-14T06:35:32.251Z,12.62
2022-10-14T06:38:07.613Z,11.78
2022-10-14T06:40:40.463Z,10.87
2022-10-14T06:43:12.950Z,10.23
2022-10-14T06:45:45.610Z,9.64
2022-10-14T06:48:17.566Z,9.10
2022-10-14T06:50:49.772Z,8.93
2022-10-14T06:53:22.328Z,10.09
2022-10-14T06:56:00.621Z,11.29
2022-10-14T06:58:32.354Z,12.12
2022-10-14T07:01:07.014Z,12.64
2022-10-14T07:03:39.636Z,13.13
2022-10-14T07:06:12.351Z,13.29
2022-10-14T07:08:45.370Z,12.42
2022-10-14T07:17:18.197Z,9.75
2022-10-14T07:19:50.081Z,9.70
2022-10-14T07:22:22.336Z,10.87
2022-10-14T07:24:54.933Z,11.94
2022-10-14T07:27:28.322Z,12.71
2022-10-14T07:30:01.870Z,13.30
2022-10-14T07:32:37.018Z,13.74
2022-10-14T07:35:10.959Z,14.14
2022-10-14T07:37:45.637Z,14.33
2022-10-14T07:40:17.800Z,13.47
2022-10-14T07:42:49.766Z,12.58
2022-10-14T07:45:21.844Z,11.92
2022-10-14T07:47:53.995Z,11.46
2022-10-14T07:50:26.061Z,11.42
2022-10-14T07:53:01.180Z,12.52
2022-10-14T07:55:33.525Z,13.50
2022-10-14T07:58:05.438Z,14.12
2022-10-14T08:00:38.553Z,14.63
2022-10-14T08:03:10.554Z,15.06
2022-10-14T08:05:42.743Z,15.19
2022-10-14T08:08:15.757Z,14.33
2022-10-14T08:10:48.013Z,13.39
2022-10-14T08:13:19.906Z,12.56
2022-10-14T08:15:51.898Z,12.23
2022-10-14T08:18:26.966Z,13.28
2022-10-14T08:20:59.449Z,14.18
2022-10-14T08:23:33.000Z,14.78
2022-10-14T08:26:05.512Z,15.22
2022-10-14T08:28:37.926Z,15.28
2022-10-14T08:31:10.051Z,14.41
2022-10-14T08:33:41.907Z,13.51
2022-10-14T08:36:14.573Z,12.86
2022-10-14T08:38:46.824Z,12.35
2022-10-14T08:41:31.030Z,12.34
2022-10-14T08:44:15.286Z,13.78
2022-10-14T08:46:52.475Z,14.95
2022-10-14T08:49:30.863Z,15.62
2022-10-14T08:52:05.038Z,16.11
2022-10-14T08:54:42.732Z,16.18
2022-10-14T08:57:20.173Z,15.26
2022-10-14T08:59:51.955Z,14.36
2022-10-14T09:02:37.110Z,13.75
2022-10-14T09:05:14.762Z,13.26
2022-10-14T09:10:31.409Z,14.59
2022-10-14T09:13:15.509Z,15.60
2022-10-14T09:15:51.444Z,16.13
2022-10-14T09:18:33.886Z,16.49
2022-10-14T09:21:27.762Z,16.46
2022-10-14T09:24:16.712Z,15.59
2022-10-14T09:26:52.522Z,14.94
2022-10-14T09:29:28.752Z,14.47
2022-10-14T09:32:07.517Z,14.15
2022-10-14T09:34:42.523Z,14.38
2022-10-14T09:37:27.097Z,15.68
2022-10-14T09:40:03.456Z,16.77
2022-10-14T09:42:45.570Z,17.41
2022-10-14T09:45:19.990Z,17.67
2022-10-14T09:47:57.199Z,17.13
2022-10-14T09:50:41.412Z,16.47
2022-10-14T09:53:26.476Z,15.98
2022-10-14T09:56:01.103Z,15.59
2022-10-14T09:58:37.463Z,15.32
2022-10-14T10:01:15.936Z,15.15
2022-10-14T10:03:49.289Z,15.39
2022-10-14T10:06:26.002Z,16.68
2022-10-14T10:09:02.111Z,17.82
2022-10-14T10:11:37.677Z,18.29
2022-10-14T10:14:23.525Z,17.85
2022-10-14T10:17:19.535Z,17.16
2022-10-14T10:20:07.162Z,16.68
2022-10-14T10:22:39.570Z,16.35
2022-10-14T10:25:28.272Z,16.19
2022-10-14T10:28:02.462Z,16.12
2022-10-14T10:30:44.899Z,16.10
2022-10-14T10:33:29.349Z,16.03
2022-10-14T10:36:24.175Z,16.01
2022-10-14T10:39:03.669Z,16.43
2022-10-14T10:41:48.538Z,17.65
2022-10-14T10:44:40.647Z,18.64
2022-10-14T10:47:24.896Z,19.11
2022-10-14T10:50:18.257Z,18.63
2022-10-14T10:53:11.235Z,18.08
2022-10-14T10:55:56.585Z,17.64
2022-10-14T10:58:44.398Z,17.33
2022-10-14T11:01:21.447Z,17.09
2022-10-14T11:04:08.755Z,16.95
2022-10-14T11:07:07.980Z,16.87
2022-10-14T11:10:08.762Z,16.82
2022-10-14T11:12:50.431Z,16.82
2022-10-14T11:15:33.125Z,16.91
2022-10-14T11:18:10.683Z,17.06
2022-10-14T11:20:55.805Z,17.16
2022-10-14T11:23:49.604Z,17.26
2022-10-14T11:26:38.335Z,17.35
2022-10-14T11:29:27.423Z,17.41
2022-10-14T11:32:11.699Z,17.45
2022-10-14T11:34:54.214Z,17.52
2022-10-14T11:37:45.331Z,17.55
2022-10-14T11:40:25.756Z,17.60
2022-10-14T11:43:08.848Z,17.69
2022-10-14T11:45:53.739Z,17.73
2022-10-14T11:48:33.935Z,17.81
2022-10-14T11:51:17.310Z,17.96
2022-10-14T11:54:00.985Z,18.14
2022-10-14T11:56:38.749Z,18.26
2022-10-14T11:59:23.919Z,18.27
2022-10-14T12:02:02.048Z,18.28
2022-10-14T12:04:38.383Z,18.33
2022-10-14T12:07:17.644Z,18.43
2022-10-14T12:09:59.024Z,18.54
2022-10-14T12:12:33.601Z,18.66
2022-10-14T12:15:14.817Z,18.74
2022-10-14T12:17:51.257Z,18.81
2022-10-14T12:20:31.277Z,18.88
2022-10-14T12:23:06.291Z,18.96
2022-10-14T12:25:48.734Z,19.07
2022-10-14T12:28:22.166Z,19.21
2022-10-14T12:31:14.032Z,19.31
2022-10-14T12:34:25.641Z,19.43
2022-10-14T12:36:57.414Z,19.61
2022-10-14T12:39:42.980Z,19.71
2022-10-14T12:42:16.995Z,19.79
2022-10-14T12:44:52.559Z,19.88
2022-10-14T12:47:30.990Z,19.99
2022-10-14T12:50:04.947Z,20.09
2022-10-14T12:52:39.771Z,20.19
2022-10-14T12:55:18.841Z,20.19
2022-10-14T12:57:56.437Z,20.13
2022-10-14T13:00:39.228Z,20.14
2022-10-14T13:03:22.836Z,20.27
2022-10-14T13:06:30.946Z,20.45
2022-10-14T13:09:33.255Z,20.62
2022-10-14T13:12:46.912Z,20.72
2022-10-14T13:15:53.242Z,20.79
2022-10-14T13:18:52.643Z,20.85
2022-10-14T13:21:53.504Z,20.87
2022-10-14T13:24:29.332Z,20.91
2022-10-14T13:27:15.541Z,20.83
2022-10-14T13:30:03.846Z,20.71
2022-10-14T13:32:42.025Z,20.70
2022-10-14T13:35:25.485Z,20.75
2022-10-14T13:38:01.306Z,20.81
2022-10-14T13:40:35.644Z,20.84
2022-10-14T13:43:16.629Z,20.78
2022-10-14T13:45:53.414Z,20.69
2022-10-14T13:48:31.419Z,20.55
2022-10-14T13:51:36.553Z,20.40
2022-10-14T13:54:24.100Z,20.23
2022-10-14T13:57:38.359Z,20.09
2022-10-14T14:02:54.512Z,19.95
2022-10-14T14:05:36.021Z,19.92
2022-10-14T14:11:16.366Z,19.92
2022-10-14T14:13:59.833Z,19.92
2022-10-14T14:16:36.325Z,19.90
2022-10-14T14:19:18.447Z,19.86
2022-10-14T14:21:50.122Z,19.83
2022-10-14T14:24:25.736Z,19.81
2022-10-14T14:26:58.262Z,19.76
2022-10-14T14:29:33.116Z,19.70
2022-10-14T14:32:08.162Z,19.63
2022-10-14T14:34:43.703Z,19.54
2022-10-14T14:40:21.906Z,19.35
2022-10-14T14:42:56.138Z,19.27
2022-10-14T14:45:30.574Z,19.22
2022-10-14T14:48:07.751Z,19.16
2022-10-14T14:50:43.485Z,19.08
2022-10-14T14:53:20.570Z,19.00
2022-10-14T14:56:05.843Z,18.91
2022-10-14T14:58:44.976Z,18.78
2022-10-14T15:01:25.459Z,18.64
2022-10-14T15:04:13.718Z,18.50
2022-10-14T15:06:53.486Z,18.33
2022-10-14T15:09:31.348Z,18.17
2022-10-14T15:12:05.325Z,18.01
2022-10-14T15:14:46.248Z,17.83
2022-10-14T15:17:34.230Z,17.64
2022-10-14T15:20:29.593Z,17.43
2022-10-14T15:23:01.321Z,17.22
2022-10-14T15:25:34.163Z,17.04
2022-10-14T15:28:06.006Z,16.85
2022-10-14T15:30:55.669Z,16.66
2022-10-14T15:33:28.391Z,16.46
2022-10-14T15:36:02.802Z,16.29
2022-10-14T15:38:35.546Z,16.11
2022-10-14T15:41:07.798Z,15.94
2022-10-14T15:43:39.988Z,15.78
2022-10-14T15:46:32.760Z,15.62
2022-10-14T15:49:12.861Z,15.44
2022-10-14T15:51:44.594Z,15.26
2022-10-14T15:54:18.786Z,15.08
2022-10-14T15:56:50.485Z,14.92
2022-10-14T15:59:22.228Z,14.74
2022-10-14T16:01:54.735Z,14.80
2022-10-14T16:04:28.071Z,15.86
2022-10-14T16:06:59.983Z,17.01
2022-10-14T16:09:31.737Z,17.66
2022-10-14T16:12:05.101Z,17.80
2022-10-14T16:14:37.352Z,17.14
2022-10-14T16:17:09.627Z,16.42
2022-10-14T16:19:43.959Z,15.85
2022-10-14T16:22:17.572Z,15.41
2022-10-14T16:24:49.274Z,15.05
2022-10-14T16:27:21.378Z,14.73
2022-10-14T16:29:53.377Z,14.68
2022-10-14T16:32:25.281Z,15.51
2022-10-14T16:34:57.151Z,16.27
2022-10-14T16:37:28.853Z,16.76
2022-10-14T16:40:01.065Z,17.17
2022-10-14T16:42:32.774Z,17.52
2022-10-14T16:45:05.014Z,17.67
2022-10-14T16:47:36.894Z,17.11
2022-10-14T16:50:11.657Z,16.46
2022-10-14T16:53:03.634Z,15.93
2022-10-14T16:55:37.830Z,15.49
2022-10-14T16:58:09.494Z,15.21
2022-10-14T17:00:42.305Z,15.26
2022-10-14T17:03:15.232Z,16.15
2022-10-14T17:05:49.547Z,16.89
2022-10-14T17:08:21.896Z,17.38
2022-10-14T17:10:59.620Z,17.72
2022-10-14T17:13:31.710Z,17.97
2022-10-14T17:16:04.545Z,18.03
2022-10-14T17:18:37.227Z,17.46
2022-10-14T17:21:12.233Z,16.83
2022-10-14T17:23:45.364Z,16.34
2022-10-14T17:26:18.996Z,15.96
2022-10-14T17:28:51.307Z,15.67
2022-10-14T17:31:23.751Z,15.61
2022-10-14T17:33:56.009Z,16.38
2022-10-14T17:36:30.852Z,17.28
2022-10-14T17:39:03.306Z,17.82
2022-10-14T17:41:35.172Z,18.10
2022-10-14T17:44:07.039Z,18.21
2022-10-14T17:46:38.787Z,17.61
2022-10-14T17:49:11.018Z,16.97
2022-10-14T17:51:42.732Z,16.48
2022-10-14T17:54:14.725Z,16.12
2022-10-14T17:56:46.398Z,15.81
2022-10-14T17:59:18.175Z,15.75
2022-10-14T18:02:05.533Z,16.55
2022-10-14T18:04:37.545Z,17.56
2022-10-14T18:07:09.342Z,18.19
2022-10-14T18:09:41.091Z,18.48
2022-10-14T18:12:12.773Z,17.90
2022-10-14T18:14:44.803Z,17.21
2022-10-14T18:17:16.930Z,16.64
2022-10-14T18:19:52.132Z,16.19
2022-10-14T18:22:24.266Z,15.81
2022-10-14T18:24:56.100Z,15.48
2022-10-14T18:27:28.137Z,15.39
2022-10-14T18:29:59.875Z,16.05
2022-10-14T18:32:31.583Z,16.76
2022-10-14T18:35:03.566Z,17.23
2022-10-14T18:37:35.743Z,17.64
2022-10-14T18:40:09.117Z,17.95
2022-10-14T18:42:41.017Z,18.17
2022-10-14T18:45:13.152Z,18.21
2022-10-14T18:47:45.190Z,17.61
2022-10-14T18:50:17.072Z,16.96
2022-10-14T18:52:48.907Z,16.46
2022-10-14T18:55:20.624Z,16.06
2022-10-14T18:57:53.551Z,15.75
2022-10-14T19:00:26.920Z,15.71
2022-10-14T19:02:58.771Z,16.56
2022-10-14T19:05:33.237Z,17.24
2022-10-14T19:08:07.565Z,17.78
2022-10-14T19:10:39.522Z,18.24
2022-10-14T19:13:12.274Z,18.61
2022-10-14T19:15:46.126Z,18.73
2022-10-14T19:18:21.818Z,18.04
2022-10-14T19:20:56.825Z,17.33
2022-10-14T19:23:28.617Z,16.74
2022-10-14T19:26:01.233Z,16.48
2022-10-14T19:28:33.134Z,17.13
2022-10-14T19:31:09.116Z,17.72
2022-10-14T19:33:42.525Z,18.08
2022-10-14T19:36:16.075Z,18.38
2022-10-14T19:38:52.136Z,18.60
2022-10-14T19:41:24.290Z,18.78
2022-10-14T19:43:57.112Z,18.91
2022-10-14T19:46:30.383Z,19.06
2022-10-14T19:49:04.369Z,19.07
2022-10-14T19:51:36.720Z,18.30
2022-10-14T19:54:08.694Z,17.49
2022-10-14T19:56:40.760Z,16.86
2022-10-14T19:59:14.210Z,16.60
2022-10-14T20:01:46.041Z,17.29
2022-10-14T20:04:20.804Z,18.01
2022-10-14T20:06:54.626Z,18.52
2022-10-14T20:09:26.381Z,18.86
2022-10-14T20:11:58.459Z,19.21
2022-10-14T20:14:30.515Z,19.29
2022-10-14T20:17:03.859Z,18.56
2022-10-14T20:19:39.904Z,17.78
2022-10-14T20:22:12.176Z,17.17
2022-10-14T20:24:44.525Z,16.68
2022-10-14T20:27:16.307Z,16.50
2022-10-14T20:29:48.140Z,17.21
2022-10-14T20:32:19.981Z,17.92
2022-10-14T20:34:51.745Z,18.38
2022-10-14T20:37:27.271Z,18.72
2022-10-14T20:39:59.978Z,18.93
2022-10-14T20:42:33.917Z,19.15
2022-10-14T20:45:06.981Z,19.18
2022-10-14T20:47:38.670Z,18.44
2022-10-14T20:50:11.764Z,17.68
2022-10-14T20:52:43.878Z,17.06
2022-10-14T20:55:16.445Z,16.57
2022-10-14T20:57:48.164Z,16.35
2022-10-14T21:00:20.377Z,16.87
2022-10-14T21:02:53.369Z,17.35
2022-10-14T21:05:25.068Z,17.68
2022-10-14T21:07:56.933Z,17.81
2022-10-14T21:10:30.540Z,17.87
2022-10-14T21:13:02.313Z,17.99
2022-10-14T21:15:34.376Z,18.14
2022-10-14T21:18:06.655Z,18.29
2022-10-14T21:20:38.398Z,18.33
2022-10-14T21:23:10.105Z,18.26
2022-10-14T21:25:41.866Z,18.24
2022-10-14T21:28:13.900Z,18.28
2022-10-14T21:30:46.012Z,18.53
2022-10-14T21:33:17.796Z,18.83
2022-10-14T21:35:49.474Z,18.96
2022-10-14T21:38:21.278Z,18.89
2022-10-14T21:40:53.206Z,18.13
2022-10-14T21:43:25.466Z,17.34
2022-10-14T21:45:57.235Z,16.75
2022-10-14T21:48:28.919Z,16.49
2022-10-14T21:51:09.246Z,16.97
2022-10-14T21:53:42.580Z,17.42
2022-10-14T21:56:15.615Z,17.66
2022-10-14T21:58:47.460Z,17.82
2022-10-14T22:01:22.710Z,17.99
2022-10-14T22:03:58.158Z,18.17
2022-10-14T22:06:30.872Z,18.31
2022-10-14T22:09:05.171Z,18.46
2022-10-14T22:11:39.761Z,18.56
2022-10-14T22:14:14.982Z,18.42
2022-10-14T22:16:47.233Z,17.72
2022-10-14T22:19:19.892Z,17.01
2022-10-14T22:21:51.612Z,16.44
2022-10-14T22:24:23.326Z,15.98
2022-10-14T22:26:55.669Z,15.79
2022-10-14T22:29:27.470Z,16.36
2022-10-14T22:31:59.508Z,17.05
2022-10-14T22:34:31.313Z,17.36
2022-10-14T22:37:03.015Z,17.50
2022-10-14T22:39:34.767Z,17.55
2022-10-14T22:42:06.655Z,17.62
2022-10-14T22:44:38.768Z,17.68
2022-10-14T22:47:10.866Z,17.78
2022-10-14T22:49:42.560Z,17.93
2022-10-14T22:52:14.218Z,17.95
2022-10-14T22:54:45.943Z,17.91
2022-10-14T22:57:18.173Z,17.88
2022-10-14T22:59:49.909Z,17.85
2022-10-14T23:02:21.999Z,17.90
2022-10-14T23:04:53.956Z,17.99
2022-10-14T23:07:25.779Z,18.11
2022-10-14T23:09:57.459Z,17.97
2022-10-14T23:12:29.473Z,17.20
2022-10-14T23:15:01.170Z,16.39
2022-10-14T23:17:33.291Z,15.76
2022-10-14T23:20:05.154Z,15.44
2022-10-14T23:22:37.167Z,15.91
2022-10-14T23:25:10.254Z,16.47
2022-10-14T23:27:42.290Z,16.91
2022-10-14T23:30:14.546Z,17.17
2022-10-14T23:32:46.246Z,17.33
2022-10-14T23:35:18.381Z,17.47
2022-10-14T23:37:50.356Z,17.63
2022-10-14T23:40:22.046Z,17.75
2022-10-14T23:42:53.671Z,17.63
2022-10-14T23:45:25.370Z,16.92
2022-10-14T23:47:57.253Z,16.16
2022-10-14T23:50:29.925Z,15.57
2022-10-14T23:53:01.806Z,15.22
2022-10-14T23:55:33.573Z,15.63
2022-10-14T23:58:05.245Z,16.22
